Time;durP1;ratioP1;P1;durP2;ratioP2;P2;SDS_P1;SDS_P2;PMS_P1;PMS_P2;Temp;Humidity;BMP_temperature;BMP_pressure;BME280_temperature;BME280_humidity;BME280_pressure;Samples;Min_cycle;Max_cycle;Signal;HPM_P1;HPM_P2
2023/03/29 00:01:16;;;;;;;12.90;3.00;;;11.90;99.90;;;;;;5131352;27;20038;-76
2023/03/29 00:03:46;;;;;;;15.88;3.10;;;11.90;99.90;;;;;;5130732;27;20055;-76
2023/03/29 00:06:20;;;;;;;16.73;3.58;;;11.90;99.90;;;;;;5131017;27;20030;-75
2023/03/29 00:08:49;;;;;;;15.05;3.45;;;11.90;99.90;;;;;;5130046;27;20612;-76
2023/03/29 00:11:16;;;;;;;13.00;3.13;;;11.90;99.90;;;;;;5131137;27;20027;-76
2023/03/29 00:13:42;;;;;;;14.10;3.03;;;11.90;99.90;;;;;;5130658;27;20042;-76
2023/03/29 00:16:08;;;;;;;12.52;3.10;;;11.90;99.90;;;;;;5131396;27;20099;-76
2023/03/29 00:18:34;;;;;;;14.05;2.75;;;12.00;99.90;;;;;;5130170;27;20027;-76
2023/03/29 00:21:00;;;;;;;15.45;2.88;;;12.00;99.90;;;;;;5131059;28;20461;-74
2023/03/29 00:23:26;;;;;;;13.05;2.60;;;12.00;99.90;;;;;;5130119;28;20047;-79
2023/03/29 00:25:53;;;;;;;13.70;2.53;;;11.90;99.90;;;;;;5131301;28;20535;-76
2023/03/29 00:28:19;;;;;;;11.45;2.40;;;11.90;99.90;;;;;;5113032;28;20027;-77
2023/03/29 00:30:45;;;;;;;12.30;2.92;;;11.90;99.90;;;;;;5112351;28;20123;-77
2023/03/29 00:33:12;;;;;;;10.57;2.83;;;11.90;99.90;;;;;;5131573;28;20130;-77
2023/03/29 00:35:41;;;;;;;14.02;2.90;;;11.80;99.90;;;;;;5130970;28;20023;-77
2023/03/29 00:38:07;;;;;;;15.65;3.65;;;11.80;99.90;;;;;;5112747;28;20130;-77
2023/03/29 00:40:34;;;;;;;19.60;3.45;;;11.90;99.90;;;;;;5130925;28;20070;-77
2023/03/29 00:43:00;;;;;;;12.80;2.97;;;11.80;99.90;;;;;;5131428;28;20042;-76
2023/03/29 00:45:29;;;;;;;17.58;3.85;;;11.90;99.90;;;;;;5131115;28;20054;-76
2023/03/29 00:48:01;;;;;;;15.57;3.13;;;11.90;99.90;;;;;;5131327;28;20038;-76
2023/03/29 00:50:36;;;;;;;17.08;3.20;;;11.90;99.90;;;;;;5131413;28;20027;-77
2023/03/29 00:53:02;;;;;;;16.80;3.33;;;11.90;99.90;;;;;;5131401;28;20415;-76
2023/03/29 00:55:35;;;;;;;13.75;3.28;;;12.00;99.90;;;;;;5131006;28;20023;-78
2023/03/29 00:58:03;;;;;;;12.27;2.67;;;11.90;99.90;;;;;;5131240;28;20038;-75
2023/03/29 01:00:34;;;;;;;17.38;3.35;;;12.00;99.90;;;;;;5133541;27;20084;-78
2023/03/29 01:03:05;;;;;;;16.48;3.00;;;12.00;99.90;;;;;;5135043;27;20049;-75
2023/03/29 01:05:38;;;;;;;16.15;3.03;;;12.00;99.90;;;;;;5134620;27;20409;-78
2023/03/29 01:08:29;;;;;;;21.00;3.80;;;12.00;99.90;;;;;;5135207;27;20038;-76
2023/03/29 01:11:08;;;;;;;14.82;3.15;;;12.00;99.90;;;;;;5116177;27;20428;-75
2023/03/29 01:13:42;;;;;;;16.52;3.55;;;12.00;99.90;;;;;;5134123;27;20023;-75
2023/03/29 01:16:11;;;;;;;14.98;3.13;;;11.90;99.90;;;;;;5135008;27;20027;-76
2023/03/29 01:18:37;;;;;;;17.85;3.38;;;11.90;99.90;;;;;;5134255;27;20019;-76
2023/03/29 01:21:41;;;;;;;16.58;2.83;;;11.90;99.90;;;;;;5134581;27;20015;-76
2023/03/29 01:24:31;;;;;;;18.45;3.60;;;11.90;99.90;;;;;;5074868;27;20154;-77
2023/03/29 01:27:12;;;;;;;16.90;3.03;;;11.90;99.90;;;;;;5134145;27;20031;-76
2023/03/29 01:29:45;;;;;;;21.30;3.08;;;11.90;99.90;;;;;;5133413;27;20088;-77
2023/03/29 01:32:37;;;;;;;17.70;3.00;;;11.80;99.90;;;;;;5134207;27;20263;-76
2023/03/29 01:35:09;;;;;;;15.05;3.25;;;11.90;99.90;;;;;;5134449;27;20030;-75
2023/03/29 01:37:57;;;;;;;11.25;2.53;;;11.90;99.90;;;;;;5133635;27;20481;-77
2023/03/29 01:40:26;;;;;;;20.92;3.33;;;11.90;99.90;;;;;;5134507;27;20383;-76
2023/03/29 01:43:26;;;;;;;15.77;2.80;;;11.90;99.90;;;;;;5133606;27;20098;-76
2023/03/29 01:46:14;;;;;;;15.75;3.38;;;11.90;99.90;;;;;;5133237;27;20031;-76
2023/03/29 01:49:02;;;;;;;15.15;2.83;;;11.90;99.90;;;;;;5133537;27;20080;-77
2023/03/29 01:51:39;;;;;;;16.35;2.83;;;11.90;99.90;;;;;;5134317;27;20027;-76
2023/03/29 01:54:08;;;;;;;12.15;2.70;;;11.90;99.90;;;;;;5134202;27;20118;-74
2023/03/29 01:56:38;;;;;;;15.95;2.80;;;11.90;99.90;;;;;;5114891;27;20038;-78
2023/03/29 01:59:10;;;;;;;17.38;3.25;;;11.90;99.90;;;;;;5133590;27;20056;-75
2023/03/29 02:01:42;;;;;;;12.75;2.90;;;11.90;99.90;;;;;;5133089;27;20033;-77
2023/03/29 02:04:12;;;;;;;18.73;4.68;;;11.80;99.90;;;;;;5133810;27;20074;-75
2023/03/29 02:06:39;;;;;;;17.83;4.15;;;11.90;99.90;;;;;;5133418;27;20030;-76
2023/03/29 02:09:06;;;;;;;21.42;3.72;;;11.90;99.90;;;;;;5133702;27;20027;-76
2023/03/29 02:11:34;;;;;;;18.63;3.40;;;11.90;99.90;;;;;;5133435;27;20023;-75
2023/03/29 02:14:00;;;;;;;15.52;3.35;;;11.90;99.90;;;;;;5133129;27;20541;-75
2023/03/29 02:16:26;;;;;;;14.02;3.47;;;11.80;99.90;;;;;;5133512;27;20110;-75
2023/03/29 02:18:55;;;;;;;17.60;3.70;;;11.80;99.90;;;;;;5132976;27;20027;-76
2023/03/29 02:22:03;;;;;;;18.38;3.45;;;11.80;99.90;;;;;;5133310;27;20034;-76
2023/03/29 02:24:33;;;;;;;17.90;3.78;;;11.80;99.90;;;;;;5133781;27;20072;-76
2023/03/29 02:27:00;;;;;;;16.42;3.45;;;11.80;99.90;;;;;;5133320;27;20465;-76
2023/03/29 02:29:26;;;;;;;18.85;3.80;;;11.90;99.90;;;;;;5133373;27;20070;-76
2023/03/29 02:32:04;;;;;;;20.20;3.70;;;11.90;99.90;;;;;;5132789;27;20046;-77
2023/03/29 02:34:37;;;;;;;16.50;2.60;;;12.00;99.90;;;;;;5133461;27;20034;-76
2023/03/29 02:37:14;;;;;;;13.57;2.88;;;12.00;99.90;;;;;;5133385;27;20038;-77
2023/03/29 02:39:41;;;;;;;18.90;3.28;;;12.00;99.90;;;;;;5132899;27;20027;-77
2023/03/29 02:42:08;;;;;;;19.50;2.97;;;12.10;99.90;;;;;;5133301;27;20019;-76
2023/03/29 02:44:38;;;;;;;13.70;3.08;;;12.10;99.90;;;;;;5133002;27;20340;-76
2023/03/29 02:47:16;;;;;;;19.73;3.22;;;12.20;99.90;;;;;;5132795;27;20046;-76
2023/03/29 02:49:42;;;;;;;17.92;3.28;;;12.30;99.90;;;;;;5132561;27;20432;-77
2023/03/29 02:52:12;;;;;;;15.43;3.10;;;12.30;99.90;;;;;;5133450;27;20123;-76
2023/03/29 02:54:42;;;;;;;17.92;2.75;;;12.40;99.90;;;;;;5132517;27;20019;-79
2023/03/29 02:57:09;;;;;;;11.38;2.55;;;12.50;99.90;;;;;;5133181;27;20029;-76
2023/03/29 02:59:35;;;;;;;15.50;2.75;;;12.50;99.90;;;;;;5132606;27;20464;-77
2023/03/29 03:02:02;;;;;;;15.80;2.58;;;12.50;99.90;;;;;;5132073;27;20037;-76
2023/03/29 03:04:28;;;;;;;18.38;3.13;;;12.60;99.90;;;;;;5132990;27;20019;-77
2023/03/29 03:06:54;;;;;;;16.08;2.97;;;12.50;99.90;;;;;;5131937;27;20023;-77
2023/03/29 03:09:19;;;;;;;13.85;3.10;;;12.60;99.90;;;;;;5132883;27;20050;-76
2023/03/29 03:11:45;;;;;;;12.35;2.95;;;12.60;99.90;;;;;;5132380;27;20058;-76
2023/03/29 03:14:11;;;;;;;14.70;3.00;;;12.50;99.90;;;;;;5132887;27;20038;-75
2023/03/29 03:16:37;;;;;;;13.82;2.70;;;12.50;99.90;;;;;;5132649;27;20027;-75
2023/03/29 03:19:03;;;;;;;17.48;2.78;;;12.50;99.90;;;;;;5132105;27;20023;-76
2023/03/29 03:21:29;;;;;;;13.05;2.63;;;12.50;99.90;;;;;;5131785;27;20047;-77
2023/03/29 03:23:55;;;;;;;15.02;2.70;;;12.50;99.90;;;;;;5131718;27;20024;-76
2023/03/29 03:26:23;;;;;;;11.05;2.30;;;12.60;99.90;;;;;;5132617;27;20034;-77
2023/03/29 03:28:49;;;;;;;13.63;2.08;;;12.60;99.90;;;;;;5131707;27;20042;-77
2023/03/29 03:31:16;;;;;;;12.25;3.20;;;12.70;99.90;;;;;;5132349;27;20028;-77
2023/03/29 03:33:42;;;;;;;8.07;2.08;;;12.60;99.90;;;;;;5132059;27;20106;-78
2023/03/29 03:36:10;;;;;;;8.38;2.08;;;12.60;99.90;;;;;;5132773;27;20058;-77
2023/03/29 03:38:36;;;;;;;13.45;2.97;;;12.60;99.90;;;;;;5132170;27;20046;-76
2023/03/29 03:41:05;;;;;;;17.08;2.42;;;12.70;99.90;;;;;;5131194;27;20144;-77
2023/03/29 03:43:31;;;;;;;15.20;2.28;;;12.70;99.90;;;;;;5132117;27;20409;-77
2023/03/29 03:45:57;;;;;;;11.40;2.20;;;12.80;99.90;;;;;;5131104;27;20098;-77
2023/03/29 03:48:23;;;;;;;11.32;2.15;;;12.80;99.90;;;;;;5113184;27;20039;-76
2023/03/29 03:50:54;;;;;;;12.88;2.60;;;12.90;99.90;;;;;;5131004;27;20031;-76
2023/03/29 03:53:22;;;;;;;10.60;2.15;;;12.90;99.90;;;;;;5131456;27;20397;-76
2023/03/29 03:55:49;;;;;;;12.95;3.00;;;12.90;99.90;;;;;;5131227;27;20051;-76
2023/03/29 03:58:15;;;;;;;12.18;2.65;;;12.90;99.90;;;;;;5131748;27;20031;-76
2023/03/29 04:00:41;;;;;;;10.52;2.60;;;12.80;99.90;;;;;;5131731;27;20413;-79
2023/03/29 04:03:07;;;;;;;9.88;2.20;;;12.80;99.90;;;;;;5130875;27;20103;-76
2023/03/29 04:05:37;;;;;;;11.75;2.33;;;12.80;99.90;;;;;;5131799;27;20448;-76
2023/03/29 04:08:05;;;;;;;8.00;1.92;;;12.80;99.90;;;;;;5130942;27;20138;-77
2023/03/29 04:10:32;;;;;;;11.90;2.20;;;12.90;99.90;;;;;;5131563;27;20531;-77
2023/03/29 04:13:01;;;;;;;10.43;2.67;;;12.90;99.90;;;;;;5112516;28;20353;-77
2023/03/29 04:15:27;;;;;;;9.00;1.92;;;12.90;99.90;;;;;;5131598;27;20301;-76
2023/03/29 04:17:56;;;;;;;12.88;2.15;;;12.90;99.90;;;;;;5130628;27;20528;-77
2023/03/29 04:20:23;;;;;;;10.70;2.08;;;12.90;99.90;;;;;;5112690;28;20421;-76
2023/03/29 04:22:50;;;;;;;8.20;1.85;;;12.90;99.90;;;;;;5130571;28;20051;-76
2023/03/29 04:25:16;;;;;;;10.52;2.20;;;12.90;99.90;;;;;;5131333;28;20165;-77
2023/03/29 04:27:42;;;;;;;13.52;2.50;;;12.90;99.90;;;;;;5131315;28;20059;-77
2023/03/29 04:30:09;;;;;;;6.30;1.52;;;12.90;99.90;;;;;;5130761;28;20027;-76
2023/03/29 04:32:35;;;;;;;5.93;1.60;;;12.90;99.90;;;;;;5131394;28;20045;-76
2023/03/29 04:35:01;;;;;;;8.00;1.63;;;12.90;99.90;;;;;;5132891;27;20479;-76
2023/03/29 04:37:28;;;;;;;5.78;1.48;;;12.90;99.90;;;;;;5135981;27;20027;-75
2023/03/29 04:39:54;;;;;;;3.80;1.05;;;13.00;99.90;;;;;;5135130;27;20115;-75
2023/03/29 04:42:19;;;;;;;7.72;1.52;;;12.90;99.90;;;;;;5135706;27;20374;-76
2023/03/29 04:44:45;;;;;;;7.60;1.50;;;12.90;99.90;;;;;;5135389;27;20019;-79
2023/03/29 04:47:14;;;;;;;6.15;1.38;;;12.90;99.90;;;;;;5116651;27;20061;-75
2023/03/29 04:49:40;;;;;;;7.22;1.52;;;12.90;99.90;;;;;;5135336;27;20471;-76
2023/03/29 04:52:07;;;;;;;4.93;1.13;;;12.90;99.90;;;;;;5134926;27;20019;-75
2023/03/29 04:54:33;;;;;;;10.05;1.50;;;12.90;99.90;;;;;;5135139;27;20486;-76
2023/03/29 04:56:59;;;;;;;6.93;1.65;;;12.90;99.90;;;;;;5134610;27;20031;-76
2023/03/29 04:59:25;;;;;;;9.80;2.50;;;12.80;99.90;;;;;;5135230;27;20023;-76
2023/03/29 05:01:51;;;;;;;8.27;1.95;;;12.80;99.90;;;;;;5116087;27;20463;-77
2023/03/29 05:04:17;;;;;;;8.93;2.28;;;12.70;99.90;;;;;;5134839;27;20466;-76
2023/03/29 05:06:44;;;;;;;7.15;2.03;;;12.70;99.90;;;;;;5135209;27;20087;-75
2023/03/29 05:09:10;;;;;;;8.82;2.00;;;12.60;99.90;;;;;;5134462;27;20031;-75
2023/03/29 05:11:35;;;;;;;10.32;2.38;;;12.50;99.90;;;;;;5134818;27;20460;-75
2023/03/29 05:14:02;;;;;;;13.00;2.20;;;12.40;99.90;;;;;;5134247;27;20118;-76
2023/03/29 05:16:31;;;;;;;11.52;2.40;;;12.40;99.90;;;;;;5134368;27;20026;-75
2023/03/29 05:18:57;;;;;;;8.27;2.00;;;12.40;99.90;;;;;;5134065;27;20046;-76
2023/03/29 05:21:24;;;;;;;4.63;1.20;;;12.30;99.90;;;;;;5134650;27;20436;-75
2023/03/29 05:23:51;;;;;;;6.70;1.33;;;12.30;99.90;;;;;;5115655;27;20413;-75
2023/03/29 05:26:16;;;;;;;6.93;1.02;;;12.30;99.90;;;;;;5116013;27;20019;-76
2023/03/29 05:28:42;;;;;;;5.68;0.90;;;12.30;99.90;;;;;;5134525;27;20062;-76
2023/03/29 05:31:09;;;;;;;2.67;0.60;;;12.40;99.90;;;;;;5133924;27;20043;-75
2023/03/29 05:33:35;;;;;;;7.10;0.75;;;12.50;99.90;;;;;;5133941;27;20031;-75
2023/03/29 05:36:03;;;;;;;3.97;0.93;;;12.60;99.90;;;;;;5133681;27;20035;-76
2023/03/29 05:38:31;;;;;;;4.10;0.90;;;12.60;99.90;;;;;;5134076;27;20027;-75
2023/03/29 05:40:57;;;;;;;3.08;0.88;;;12.60;99.90;;;;;;5133520;27;20099;-76
2023/03/29 05:43:23;;;;;;;4.72;1.08;;;12.70;99.90;;;;;;5133943;27;20054;-75
2023/03/29 05:45:52;;;;;;;10.20;1.23;;;12.60;99.90;;;;;;5133271;27;20027;-78
2023/03/29 05:48:18;;;;;;;3.13;0.80;;;12.60;99.90;;;;;;5134032;27;20066;-76
2023/03/29 05:50:48;;;;;;;3.35;0.95;;;12.60;99.90;;;;;;5133771;27;20023;-75
2023/03/29 05:53:15;;;;;;;4.45;0.88;;;12.60;99.90;;;;;;5134496;27;20054;-75
2023/03/29 05:55:41;;;;;;;4.05;0.88;;;12.70;99.90;;;;;;5133529;27;20102;-75
2023/03/29 05:58:07;;;;;;;4.55;1.05;;;12.60;99.90;;;;;;5133281;27;20069;-76
2023/03/29 06:00:35;;;;;;;1.58;0.60;;;12.70;99.90;;;;;;5115329;27;20023;-75
2023/03/29 06:03:01;;;;;;;2.58;0.80;;;12.70;99.90;;;;;;5132775;27;20023;-76
2023/03/29 06:05:27;;;;;;;3.75;0.80;;;12.70;99.90;;;;;;5133498;27;20031;-75
2023/03/29 06:07:53;;;;;;;4.75;1.15;;;12.60;99.90;;;;;;5132865;27;20027;-75
2023/03/29 06:10:19;;;;;;;2.25;0.65;;;12.70;99.90;;;;;;5133524;27;20027;-76
2023/03/29 06:12:45;;;;;;;5.43;0.90;;;12.70;99.90;;;;;;5133333;27;20063;-75
2023/03/29 06:15:12;;;;;;;5.18;1.05;;;12.60;99.90;;;;;;5132504;27;20678;-75
2023/03/29 06:17:39;;;;;;;3.97;1.13;;;12.60;99.90;;;;;;5133526;27;20197;-75
2023/03/29 06:20:10;;;;;;;4.35;0.73;;;12.70;99.90;;;;;;5133099;27;20107;-76
2023/03/29 06:22:40;;;;;;;4.78;1.02;;;12.70;99.90;;;;;;5133828;27;20086;-75
2023/03/29 06:25:09;;;;;;;4.93;0.90;;;12.70;99.90;;;;;;5133110;27;20113;-75
2023/03/29 06:27:36;;;;;;;4.20;1.20;;;12.60;99.90;;;;;;5133327;27;20077;-75
2023/03/29 06:30:04;;;;;;;72.45;9.23;;;12.70;99.90;;;;;;5132755;27;20104;-76
2023/03/29 06:32:32;;;;;;;3.58;0.93;;;12.60;99.90;;;;;;5132830;27;20484;-75
2023/03/29 06:34:58;;;;;;;3.85;0.80;;;12.60;99.90;;;;;;5132350;27;20047;-75
2023/03/29 06:37:24;;;;;;;0.95;0.55;;;12.60;99.90;;;;;;5114544;27;20031;-76
2023/03/29 06:39:51;;;;;;;3.50;1.05;;;12.60;99.90;;;;;;5114375;27;20020;-75
2023/03/29 06:42:21;;;;;;;3.92;0.90;;;12.60;99.90;;;;;;5132586;27;20053;-75
2023/03/29 06:44:48;;;;;;;2.78;0.80;;;12.60;99.90;;;;;;5132682;27;20072;-76
2023/03/29 06:47:15;;;;;;;24.60;3.20;;;12.60;99.90;;;;;;5131831;27;20022;-76
2023/03/29 06:49:41;;;;;;;4.20;0.93;;;12.50;99.90;;;;;;5132818;27;20039;-76
2023/03/29 06:52:07;;;;;;;1.92;1.00;;;12.50;99.90;;;;;;5132067;27;20115;-76
2023/03/29 06:54:33;;;;;;;17.85;2.97;;;12.50;99.90;;;;;;5132696;27;20105;-75
2023/03/29 06:57:00;;;;;;;5.47;1.33;;;12.50;99.90;;;;;;5130816;27;20027;-76
2023/03/29 06:59:25;;;;;;;2.00;0.55;;;12.50;99.90;;;;;;5132170;27;20027;-76
2023/03/29 07:01:54;;;;;;;1.60;0.68;;;12.50;99.90;;;;;;5113866;27;20023;-75
2023/03/29 07:04:22;;;;;;;2.83;0.85;;;12.50;99.90;;;;;;5131878;27;20440;-76
2023/03/29 07:06:57;;;;;;;6.13;0.50;;;12.40;99.90;;;;;;5131860;27;20035;-76
2023/03/29 07:09:25;;;;;;;4.75;0.93;;;12.40;99.90;;;;;;5132495;27;20031;-76
2023/03/29 07:11:50;;;;;;;5.32;0.63;;;12.50;99.90;;;;;;5131996;27;20027;-76
2023/03/29 07:14:16;;;;;;;3.78;0.50;;;12.40;99.90;;;;;;5131384;27;20077;-76
2023/03/29 07:16:45;;;;;;;15.27;3.15;;;12.40;99.90;;;;;;5132043;27;20390;-76
2023/03/29 07:19:12;;;;;;;2.67;0.57;;;12.40;99.90;;;;;;5131715;27;20019;-76
2023/03/29 07:21:38;;;;;;;2.95;0.80;;;12.30;99.90;;;;;;5132064;27;20027;-77
2023/03/29 07:24:05;;;;;;;1.65;0.35;;;12.30;99.90;;;;;;5131422;27;20028;-77
2023/03/29 07:26:31;;;;;;;1.98;0.60;;;12.30;99.90;;;;;;5113388;27;20035;-76
2023/03/29 07:28:57;;;;;;;18.63;2.22;;;12.30;99.90;;;;;;5131844;27;20035;-78
2023/03/29 07:31:23;;;;;;;13.15;1.70;;;12.30;99.90;;;;;;5132247;27;20111;-76
2023/03/29 07:33:51;;;;;;;33.13;3.97;;;12.20;99.90;;;;;;5131606;27;20109;-75
2023/03/29 07:36:17;;;;;;;1.98;0.80;;;12.20;99.90;;;;;;5130733;27;20064;-75
2023/03/29 07:38:43;;;;;;;3.60;0.73;;;12.20;99.90;;;;;;5131822;27;20476;-75
2023/03/29 07:41:09;;;;;;;1.80;0.82;;;12.20;99.90;;;;;;5131172;27;20035;-76
2023/03/29 07:43:35;;;;;;;14.52;1.85;;;12.20;99.90;;;;;;5131530;27;20141;-76
2023/03/29 07:46:02;;;;;;;3.72;0.90;;;12.20;99.90;;;;;;5131254;27;20112;-76
2023/03/29 07:48:28;;;;;;;5.88;0.80;;;12.30;99.90;;;;;;5131365;27;20030;-76
2023/03/29 07:50:54;;;;;;;2.17;0.63;;;12.30;99.90;;;;;;5131568;27;20062;-76
2023/03/29 07:53:20;;;;;;;4.75;1.08;;;12.30;99.90;;;;;;5130995;27;20023;-76
2023/03/29 07:55:47;;;;;;;16.73;2.50;;;12.40;99.90;;;;;;5131422;27;20409;-76
2023/03/29 07:58:14;;;;;;;18.10;2.67;;;12.40;99.90;;;;;;5131011;27;20023;-76
2023/03/29 08:00:40;;;;;;;5.15;1.08;;;12.40;99.90;;;;;;5131596;27;20047;-76
2023/03/29 08:03:07;;;;;;;77.13;10.23;;;12.40;99.90;;;;;;5130772;27;20054;-77
2023/03/29 08:05:33;;;;;;;8.60;1.38;;;12.40;99.90;;;;;;5131560;27;20133;-76
2023/03/29 08:07:59;;;;;;;17.45;2.58;;;12.40;99.90;;;;;;5131144;27;20155;-79
2023/03/29 08:10:26;;;;;;;73.32;9.35;;;12.40;99.90;;;;;;5131110;27;20027;-76
2023/03/29 08:12:52;;;;;;;8.20;1.70;;;12.30;99.90;;;;;;5131421;27;20462;-76
2023/03/29 08:15:18;;;;;;;4.22;1.05;;;12.30;99.90;;;;;;5112301;28;20019;-76
2023/03/29 08:17:44;;;;;;;4.65;0.90;;;12.20;99.90;;;;;;5131083;27;20107;-76
2023/03/29 08:20:12;;;;;;;2.17;1.30;;;12.20;99.90;;;;;;5130900;27;20030;-76
2023/03/29 08:22:39;;;;;;;15.75;2.60;;;12.20;99.90;;;;;;5130893;27;20043;-76
2023/03/29 08:25:06;;;;;;;1.95;1.00;;;12.10;99.90;;;;;;5130545;28;20084;-76
2023/03/29 08:27:32;;;;;;;1.05;0.70;;;12.10;99.90;;;;;;5130866;28;20035;-76
2023/03/29 08:29:58;;;;;;;33.33;4.30;;;12.10;99.90;;;;;;5131183;28;20023;-76
2023/03/29 08:32:23;;;;;;;81.70;9.80;;;12.20;99.90;;;;;;5130816;28;20031;-76
2023/03/29 08:34:49;;;;;;;22.90;3.67;;;12.20;99.90;;;;;;5131022;28;20076;-76
2023/03/29 08:37:15;;;;;;;2.65;0.90;;;12.20;99.90;;;;;;5130442;28;20054;-76
2023/03/29 08:39:41;;;;;;;2.33;0.80;;;12.20;99.90;;;;;;5131000;28;20146;-77
2023/03/29 08:42:27;;;;;;;50.90;7.07;;;12.20;99.90;;;;;;5112440;28;20027;-75
2023/03/29 08:45:31;;;;;;;3.65;1.05;;;12.20;99.90;;;;;;5113419;28;20043;-74
2023/03/29 08:48:00;;;;;;;4.13;1.00;;;12.20;99.90;;;;;;5131373;28;20043;-75
2023/03/29 08:50:48;;;;;;;3.00;0.73;;;12.30;99.90;;;;;;5131095;28;20031;-75
2023/03/29 08:53:18;;;;;;;2.45;0.80;;;12.30;99.90;;;;;;5131528;28;20481;-75
2023/03/29 08:55:46;;;;;;;2.88;0.80;;;12.40;99.90;;;;;;5131019;28;20067;-75
2023/03/29 08:58:19;;;;;;;2.60;0.60;;;12.40;99.90;;;;;;5130515;28;20019;-75
2023/03/29 09:00:54;;;;;;;1.30;0.57;;;12.50;99.90;;;;;;5130845;28;20022;-75
2023/03/29 09:03:24;;;;;;;2.55;1.17;;;12.50;99.90;;;;;;5130786;28;20038;-75
2023/03/29 09:06:05;;;;;;;3.80;1.00;;;12.60;99.90;;;;;;5130617;28;20023;-75
2023/03/29 09:08:36;;;;;;;1.80;0.40;;;12.60;99.90;;;;;;5130397;28;20057;-75
2023/03/29 09:11:22;;;;;;;1.80;0.57;;;12.60;99.90;;;;;;5130654;28;20365;-75
2023/03/29 09:14:21;;;;;;;2.00;0.52;;;12.60;99.90;;;;;;5130438;28;20030;-75
2023/03/29 09:17:15;;;;;;;0.70;0.22;;;12.70;99.90;;;;;;5130920;28;20050;-75
2023/03/29 09:19:55;;;;;;;2.25;0.45;;;12.70;99.90;;;;;;5130495;27;20373;-76
2023/03/29 09:22:27;;;;;;;2.88;0.60;;;12.70;99.90;;;;;;5133866;27;20523;-76
2023/03/29 09:24:58;;;;;;;2.55;0.50;;;12.70;99.90;;;;;;5128736;27;20144;-76
2023/03/29 09:27:34;;;;;;;2.97;0.40;;;12.70;99.90;;;;;;5131846;27;20168;-77
2023/03/29 09:30:24;;;;;;;0.45;0.25;;;12.70;99.90;;;;;;5130645;27;20379;-76
2023/03/29 09:33:15;;;;;;;0.55;0.30;;;12.70;99.90;;;;;;5116327;27;20027;-76
2023/03/29 09:35:55;;;;;;;1.35;0.32;;;12.70;99.90;;;;;;5134089;27;20469;-76
2023/03/29 09:38:21;;;;;;;1.77;0.47;;;12.60;99.90;;;;;;5133774;27;20030;-77
2023/03/29 09:41:07;;;;;;;12.38;2.85;;;12.60;99.90;;;;;;5134184;27;20468;-76
2023/03/29 09:43:41;;;;;;;9.45;1.60;;;12.60;99.90;;;;;;5133971;27;20031;-77
2023/03/29 09:46:17;;;;;;;14.05;2.42;;;12.50;99.90;;;;;;5134260;27;20031;-82
2023/03/29 09:48:45;;;;;;;5.40;0.77;;;12.50;99.90;;;;;;5134291;27;20027;-77
2023/03/29 09:51:13;;;;;;;62.28;7.05;;;12.40;99.90;;;;;;5133645;27;20050;-79
2023/03/29 09:53:38;;;;;;;6.15;2.08;;;12.30;99.90;;;;;;5115469;27;20527;-79
2023/03/29 09:56:05;;;;;;;2.70;1.08;;;12.30;99.90;;;;;;5134275;27;20077;-78
2023/03/29 09:58:31;;;;;;;2.50;0.60;;;12.20;99.90;;;;;;5133751;27;20122;-79
2023/03/29 10:01:00;;;;;;;3.30;0.95;;;12.20;99.90;;;;;;5134375;27;20068;-78
2023/03/29 10:03:30;;;;;;;2.58;1.20;;;12.20;99.90;;;;;;5133611;27;20080;-78
2023/03/29 10:05:59;;;;;;;4.90;1.08;;;12.20;99.90;;;;;;5134131;27;20387;-78
2023/03/29 10:08:29;;;;;;;1.55;0.65;;;12.10;99.90;;;;;;5133106;27;20038;-77
2023/03/29 10:10:59;;;;;;;1.60;0.60;;;12.10;99.90;;;;;;5133782;27;20023;-77
2023/03/29 10:13:34;;;;;;;4.05;1.17;;;12.10;99.90;;;;;;5133206;27;20054;-77
2023/03/29 10:16:24;;;;;;;4.47;0.73;;;12.10;99.90;;;;;;5133634;27;20098;-75
2023/03/29 10:18:50;;;;;;;2.38;0.82;;;12.10;99.90;;;;;;5133665;27;20377;-76
2023/03/29 10:21:21;;;;;;;1.15;0.60;;;12.20;99.90;;;;;;5133181;27;20023;-76
2023/03/29 10:23:48;;;;;;;1.48;0.60;;;12.20;99.90;;;;;;5133945;27;20123;-77
2023/03/29 10:26:33;;;;;;;3.15;1.55;;;12.20;99.90;;;;;;5132553;27;20050;-77
2023/03/29 10:29:03;;;;;;;1.77;0.90;;;12.30;99.90;;;;;;5133518;27;20095;-76
2023/03/29 10:31:35;;;;;;;5.57;1.77;;;12.30;99.90;;;;;;5132390;27;20315;-76
2023/03/29 10:34:03;;;;;;;4.20;1.15;;;12.30;99.90;;;;;;5133484;27;20042;-76
2023/03/29 10:36:29;;;;;;;3.60;1.27;;;12.40;99.90;;;;;;5132612;27;20805;-76
2023/03/29 10:38:59;;;;;;;3.33;1.25;;;12.50;99.90;;;;;;5133042;27;20109;-76
2023/03/29 10:41:29;;;;;;;4.15;1.27;;;12.50;99.90;;;;;;5132428;27;20027;-77
2023/03/29 10:43:55;;;;;;;1.92;0.85;;;12.50;99.90;;;;;;5133156;27;20023;-76
2023/03/29 10:46:26;;;;;;;3.03;1.38;;;12.50;99.90;;;;;;5132489;27;20031;-76
2023/03/29 10:49:04;;;;;;;4.32;1.20;;;12.60;99.90;;;;;;5114348;27;20027;-75
2023/03/29 10:51:33;;;;;;;2.17;1.13;;;12.60;99.90;;;;;;5132487;27;20160;-75
2023/03/29 10:54:00;;;;;;;4.25;1.60;;;12.60;99.90;;;;;;5132953;27;20019;-76
2023/03/29 10:56:40;;;;;;;2.85;0.70;;;12.60;99.90;;;;;;5132429;27;20027;-76
2023/03/29 10:59:16;;;;;;;5.50;0.90;;;12.70;99.90;;;;;;5132684;27;20103;-76
2023/03/29 11:02:19;;;;;;;1.05;0.50;;;12.80;99.90;;;;;;5132885;27;20031;-75
2023/03/29 11:05:07;;;;;;;2.53;0.57;;;13.00;99.90;;;;;;5132527;27;20106;-76
2023/03/29 11:07:50;;;;;;;2.63;0.60;;;13.10;99.90;;;;;;5131609;27;20846;-76
2023/03/29 11:10:34;;;;;;;1.15;0.52;;;13.20;99.90;;;;;;5131383;27;20080;-76
2023/03/29 11:13:08;;;;;;;0.98;0.50;;;13.40;99.90;;;;;;5113860;27;20035;-76
2023/03/29 11:15:50;;;;;;;1.25;0.50;;;13.40;99.90;;;;;;5113244;27;20031;-75
2023/03/29 11:18:24;;;;;;;5.13;0.50;;;13.50;99.90;;;;;;5131448;27;20124;-77
2023/03/29 11:20:50;;;;;;;1.60;0.60;;;13.60;99.90;;;;;;5132380;27;20027;-76
2023/03/29 11:23:27;;;;;;;3.95;0.40;;;13.70;99.90;;;;;;5131452;27;20455;-77
2023/03/29 11:25:56;;;;;;;2.00;0.77;;;13.80;99.90;;;;;;5132036;27;20065;-76
2023/03/29 11:28:42;;;;;;;1.73;0.80;;;13.80;99.90;;;;;;5131546;27;20060;-76
2023/03/29 11:31:37;;;;;;;1.73;0.85;;;14.00;99.90;;;;;;5132009;27;20050;-76
2023/03/29 11:34:33;;;;;;;4.20;0.77;;;14.10;99.90;;;;;;5113527;27;20030;-76
2023/03/29 11:37:14;;;;;;;1.30;0.80;;;14.20;99.90;;;;;;5131987;27;20053;-76
2023/03/29 11:39:59;;;;;;;3.22;0.70;;;14.40;99.90;;;;;;5131411;27;20024;-76
2023/03/29 11:42:30;;;;;;;2.47;0.63;;;14.40;99.90;;;;;;5131224;27;20473;-76
2023/03/29 11:44:59;;;;;;;5.72;1.30;;;14.50;99.90;;;;;;5131962;27;20079;-76
2023/03/29 11:47:38;;;;;;;4.43;1.23;;;14.60;99.90;;;;;;5131387;27;20031;-76
2023/03/29 11:50:24;;;;;;;3.85;0.82;;;14.80;99.90;;;;;;5132054;27;20031;-76
2023/03/29 11:52:52;;;;;;;3.67;0.77;;;15.00;99.90;;;;;;5131300;27;20054;-77
2023/03/29 11:55:24;;;;;;;3.85;1.25;;;15.30;99.90;;;;;;5131038;27;20498;-80
2023/03/29 11:57:52;;;;;;;;;;;15.40;99.90;;;;;;5132497;27;20495;-78
2023/03/29 12:00:24;;;;;;;3.65;1.35;;;15.60;99.90;;;;;;5131232;27;19925;-77
2023/03/29 12:03:27;;;;;;;3.28;0.88;;;15.80;99.90;;;;;;5113264;27;20058;-77
2023/03/29 12:06:09;;;;;;;3.42;1.33;;;15.80;99.90;;;;;;5077796;27;20036;-76
2023/03/29 12:08:44;;;;;;;5.93;1.27;;;15.90;99.90;;;;;;5130964;27;20037;-77
2023/03/29 12:11:24;;;;;;;4.90;1.92;;;16.00;99.90;;;;;;5131615;27;20077;-77
2023/03/29 12:13:55;;;;;;;6.35;1.85;;;16.10;99.90;;;;;;5131656;27;20095;-76
2023/03/29 12:16:36;;;;;;;6.28;1.75;;;16.20;99.90;;;;;;5130867;27;20405;-77
2023/03/29 12:19:21;;;;;;;6.60;1.95;;;16.20;99.90;;;;;;5131204;27;20024;-76
2023/03/29 12:21:48;;;;;;;7.50;2.08;;;16.20;99.90;;;;;;5131189;27;20024;-76
2023/03/29 12:24:16;;;;;;;7.55;2.08;;;16.20;99.90;;;;;;5113128;28;20035;-76
2023/03/29 12:27:07;;;;;;;14.60;2.55;;;16.30;99.90;;;;;;5131098;28;20030;-76
2023/03/29 12:29:48;;;;;;;8.57;2.40;;;16.40;99.90;;;;;;5130929;28;20027;-76
2023/03/29 12:32:32;;;;;;;10.68;2.20;;;16.40;99.90;;;;;;5131348;28;20029;-75
2023/03/29 12:35:16;;;;;;;7.57;2.25;;;16.30;99.90;;;;;;5131422;28;20079;-75
2023/03/29 12:38:14;;;;;;;13.63;2.50;;;16.30;99.90;;;;;;5131949;28;20028;-76
2023/03/29 12:40:52;;;;;;;10.80;2.72;;;16.30;99.90;;;;;;5130507;28;20600;-76
2023/03/29 12:43:26;;;;;;;12.13;3.22;;;16.40;99.90;;;;;;5131045;28;20030;-81
2023/03/29 12:45:57;;;;;;;16.20;2.90;;;16.40;99.90;;;;;;5131332;28;20454;-76
2023/03/29 12:48:26;;;;;;;15.52;2.80;;;16.50;99.90;;;;;;5130783;28;20054;-77
2023/03/29 12:50:56;;;;;;;8.68;2.22;;;16.70;99.90;;;;;;5130889;28;20027;-76
2023/03/29 12:53:24;;;;;;;9.93;2.80;;;16.80;99.90;;;;;;5130905;28;20421;-81
2023/03/29 12:56:00;;;;;;;14.18;3.00;;;16.90;99.90;;;;;;5132913;27;20030;-76
2023/03/29 12:58:38;;;;;;;13.02;3.00;;;17.00;99.90;;;;;;5134781;27;20141;-76
2023/03/29 13:01:05;;;;;;;11.93;3.00;;;17.00;99.90;;;;;;5134865;27;20019;-76
2023/03/29 13:03:46;;;;;;;18.25;3.40;;;17.10;99.90;;;;;;5134286;27;20336;-76